sensor_id;sensor_type;location;lat;lon;timestamp;temperature;humidity
7427;DHT22;3755;59.316;18.092;2023-05-16T00:01:39;11.70;99.90
7427;DHT22;3755;59.316;18.092;2023-05-16T00:04:06;11.70;99.90
7427;DHT22;3755;59.316;18.092;2023-05-16T00:06:35;11.60;99.90
7427;DHT22;3755;59.316;18.092;2023-05-16T00:09:02;11.60;99.90
7427;DHT22;3755;59.316;18.092;2023-05-16T00:11:29;11.60;99.90
7427;DHT22;3755;59.316;18.092;2023-05-16T00:13:56;11.60;99.90
7427;DHT22;3755;59.316;18.092;2023-05-16T00:16:23;11.60;99.90
7427;DHT22;3755;59.316;18.092;2023-05-16T00:18:54;11.60;99.90
7427;DHT22;3755;59.316;18.092;2023-05-16T00:21:22;11.70;99.90
7427;DHT22;3755;59.316;18.092;2023-05-16T00:23:51;11.70;99.90
7427;DHT22;3755;59.316;18.092;2023-05-16T00:26:18;11.70;99.90
7427;DHT22;3755;59.316;18.092;2023-05-16T00:28:47;11.70;99.90
7427;DHT22;3755;59.316;18.092;2023-05-16T00:31:14;11.70;99.90
7427;DHT22;3755;59.316;18.092;2023-05-16T00:33:41;11.70;99.90
7427;DHT22;3755;59.316;18.092;2023-05-16T00:36:09;11.70;99.90
7427;DHT22;3755;59.316;18.092;2023-05-16T00:38:36;11.70;99.90
7427;DHT22;3755;59.316;18.092;2023-05-16T00:41:05;11.70;99.90
7427;DHT22;3755;59.316;18.092;2023-05-16T00:43:32;11.60;99.90
7427;DHT22;3755;59.316;18.092;2023-05-16T00:45:59;11.60;99.90
7427;DHT22;3755;59.316;18.092;2023-05-16T00:48:27;11.60;99.90
7427;DHT22;3755;59.316;18.092;2023-05-16T00:50:54;11.70;99.90
7427;DHT22;3755;59.316;18.092;2023-05-16T00:53:22;11.60;99.90
7427;DHT22;3755;59.316;18.092;2023-05-16T00:55:50;11.60;99.90
7427;DHT22;3755;59.316;18.092;2023-05-16T00:58:21;11.60;99.90
7427;DHT22;3755;59.316;18.092;2023-05-16T01:00:49;11.60;99.90
7427;DHT22;3755;59.316;18.092;2023-05-16T01:03:16;11.60;99.90
7427;DHT22;3755;59.316;18.092;2023-05-16T01:05:44;11.50;99.90
7427;DHT22;3755;59.316;18.092;2023-05-16T01:08:11;11.40;99.90
7427;DHT22;3755;59.316;18.092;2023-05-16T01:10:45;11.30;99.90
7427;DHT22;3755;59.316;18.092;2023-05-16T01:13:23;11.30;99.90
7427;DHT22;3755;59.316;18.092;2023-05-16T01:16:01;11.20;99.90
7427;DHT22;3755;59.316;18.092;2023-05-16T01:18:35;11.20;99.90
7427;DHT22;3755;59.316;18.092;2023-05-16T01:21:11;11.20;99.90
7427;DHT22;3755;59.316;18.092;2023-05-16T01:23:51;11.20;99.90
7427;DHT22;3755;59.316;18.092;2023-05-16T01:26:21;11.10;99.90
7427;DHT22;3755;59.316;18.092;2023-05-16T01:28:49;11.10;99.90
7427;DHT22;3755;59.316;18.092;2023-05-16T01:31:17;11.10;99.90
7427;DHT22;3755;59.316;18.092;2023-05-16T01:33:44;11.10;99.90
7427;DHT22;3755;59.316;18.092;2023-05-16T01:36:16;11.10;99.90
7427;DHT22;3755;59.316;18.092;2023-05-16T01:39:01;11.20;99.90
7427;DHT22;3755;59.316;18.092;2023-05-16T01:41:40;11.20;99.90
7427;DHT22;3755;59.316;18.092;2023-05-16T01:44:15;11.20;99.90
7427;DHT22;3755;59.316;18.092;2023-05-16T01:46:46;11.20;99.90
7427;DHT22;3755;59.316;18.092;2023-05-16T01:49:18;11.20;99.90
7427;DHT22;3755;59.316;18.092;2023-05-16T01:51:51;11.30;99.90
7427;DHT22;3755;59.316;18.092;2023-05-16T01:54:20;11.30;99.90
7427;DHT22;3755;59.316;18.092;2023-05-16T01:56:53;11.40;99.90
7427;DHT22;3755;59.316;18.092;2023-05-16T01:59:23;11.50;99.90
7427;DHT22;3755;59.316;18.092;2023-05-16T02:01:52;11.50;99.90
7427;DHT22;3755;59.316;18.092;2023-05-16T02:04:20;11.50;99.90
7427;DHT22;3755;59.316;18.092;2023-05-16T02:06:49;11.60;99.90
7427;DHT22;3755;59.316;18.092;2023-05-16T02:09:16;11.60;99.90
7427;DHT22;3755;59.316;18.092;2023-05-16T02:11:43;11.70;99.90
7427;DHT22;3755;59.316;18.092;2023-05-16T02:14:13;11.60;99.90
7427;DHT22;3755;59.316;18.092;2023-05-16T02:16:40;11.80;99.90
7427;DHT22;3755;59.316;18.092;2023-05-16T02:19:07;11.80;99.90
7427;DHT22;3755;59.316;18.092;2023-05-16T02:21:34;11.80;99.90
7427;DHT22;3755;59.316;18.092;2023-05-16T02:24:02;11.80;99.90
7427;DHT22;3755;59.316;18.092;2023-05-16T02:26:29;11.70;99.90
7427;DHT22;3755;59.316;18.092;2023-05-16T02:28:56;11.60;99.90
7427;DHT22;3755;59.316;18.092;2023-05-16T02:31:29;11.50;99.90
7427;DHT22;3755;59.316;18.092;2023-05-16T02:33:56;11.40;99.90
7427;DHT22;3755;59.316;18.092;2023-05-16T02:36:24;11.40;99.90
7427;DHT22;3755;59.316;18.092;2023-05-16T02:38:51;11.40;99.90
7427;DHT22;3755;59.316;18.092;2023-05-16T02:41:18;11.40;99.90
7427;DHT22;3755;59.316;18.092;2023-05-16T02:43:46;11.50;99.90
7427;DHT22;3755;59.316;18.092;2023-05-16T02:46:21;11.60;99.90
7427;DHT22;3755;59.316;18.092;2023-05-16T02:48:50;11.60;99.90
7427;DHT22;3755;59.316;18.092;2023-05-16T02:51:19;11.60;99.90
7427;DHT22;3755;59.316;18.092;2023-05-16T02:53:46;11.70;99.90
7427;DHT22;3755;59.316;18.092;2023-05-16T02:56:13;11.80;99.90
7427;DHT22;3755;59.316;18.092;2023-05-16T02:58:40;11.80;99.90
7427;DHT22;3755;59.316;18.092;2023-05-16T03:01:08;11.90;99.90
7427;DHT22;3755;59.316;18.092;2023-05-16T03:03:35;11.90;99.90
7427;DHT22;3755;59.316;18.092;2023-05-16T03:06:04;11.90;99.90
7427;DHT22;3755;59.316;18.092;2023-05-16T03:08:32;12.00;99.90
7427;DHT22;3755;59.316;18.092;2023-05-16T03:10:59;12.00;99.90
7427;DHT22;3755;59.316;18.092;2023-05-16T03:13:27;12.10;99.90
7427;DHT22;3755;59.316;18.092;2023-05-16T03:15:55;12.10;99.90
7427;DHT22;3755;59.316;18.092;2023-05-16T03:18:22;12.20;99.90
7427;DHT22;3755;59.316;18.092;2023-05-16T03:20:49;12.20;99.90
7427;DHT22;3755;59.316;18.092;2023-05-16T03:23:19;12.30;99.90
7427;DHT22;3755;59.316;18.092;2023-05-16T03:25:46;12.30;99.90
7427;DHT22;3755;59.316;18.092;2023-05-16T03:28:15;12.30;99.90
7427;DHT22;3755;59.316;18.092;2023-05-16T03:30:43;12.40;99.90
7427;DHT22;3755;59.316;18.092;2023-05-16T03:33:10;12.30;99.90
7427;DHT22;3755;59.316;18.092;2023-05-16T03:35:37;12.30;99.90
7427;DHT22;3755;59.316;18.092;2023-05-16T03:38:05;12.30;99.90
7427;DHT22;3755;59.316;18.092;2023-05-16T03:40:34;12.30;99.90
7427;DHT22;3755;59.316;18.092;2023-05-16T03:43:01;12.20;99.90
7427;DHT22;3755;59.316;18.092;2023-05-16T03:45:29;12.20;99.90
7427;DHT22;3755;59.316;18.092;2023-05-16T03:47:56;12.20;99.90
7427;DHT22;3755;59.316;18.092;2023-05-16T03:50:23;12.30;99.90
7427;DHT22;3755;59.316;18.092;2023-05-16T03:52:51;12.30;99.90
7427;DHT22;3755;59.316;18.092;2023-05-16T03:55:19;12.30;99.90
7427;DHT22;3755;59.316;18.092;2023-05-16T03:57:47;12.30;99.90
7427;DHT22;3755;59.316;18.092;2023-05-16T04:00:17;12.30;99.90
7427;DHT22;3755;59.316;18.092;2023-05-16T04:02:44;12.30;99.90
7427;DHT22;3755;59.316;18.092;2023-05-16T04:05:11;12.30;99.90
7427;DHT22;3755;59.316;18.092;2023-05-16T04:07:39;12.40;99.90
7427;DHT22;3755;59.316;18.092;2023-05-16T04:10:07;12.30;99.90
7427;DHT22;3755;59.316;18.092;2023-05-16T04:12:35;12.40;99.90
7427;DHT22;3755;59.316;18.092;2023-05-16T04:15:04;12.40;99.90
7427;DHT22;3755;59.316;18.092;2023-05-16T04:17:32;12.50;99.90
7427;DHT22;3755;59.316;18.092;2023-05-16T04:19:59;12.50;99.90
7427;DHT22;3755;59.316;18.092;2023-05-16T04:22:26;12.60;99.90
7427;DHT22;3755;59.316;18.092;2023-05-16T04:24:53;12.70;99.90
7427;DHT22;3755;59.316;18.092;2023-05-16T04:27:21;12.70;99.90
7427;DHT22;3755;59.316;18.092;2023-05-16T04:29:49;12.70;99.90
7427;DHT22;3755;59.316;18.092;2023-05-16T04:32:18;12.70;99.90
7427;DHT22;3755;59.316;18.092;2023-05-16T04:34:45;12.60;99.90
7427;DHT22;3755;59.316;18.092;2023-05-16T04:37:13;12.50;99.90
7427;DHT22;3755;59.316;18.092;2023-05-16T04:39:41;12.40;99.90
7427;DHT22;3755;59.316;18.092;2023-05-16T04:42:08;12.40;99.90
7427;DHT22;3755;59.316;18.092;2023-05-16T04:44:35;12.30;99.90
7427;DHT22;3755;59.316;18.092;2023-05-16T04:47:03;12.20;99.90
7427;DHT22;3755;59.316;18.092;2023-05-16T04:49:31;12.10;99.90
7427;DHT22;3755;59.316;18.092;2023-05-16T04:51:58;12.10;99.90
7427;DHT22;3755;59.316;18.092;2023-05-16T04:54:26;12.10;99.90
7427;DHT22;3755;59.316;18.092;2023-05-16T04:56:53;12.10;99.90
7427;DHT22;3755;59.316;18.092;2023-05-16T04:59:20;12.10;99.90
7427;DHT22;3755;59.316;18.092;2023-05-16T05:01:47;12.10;99.90
7427;DHT22;3755;59.316;18.092;2023-05-16T05:04:15;12.10;99.90
7427;DHT22;3755;59.316;18.092;2023-05-16T05:06:44;12.10;99.90
7427;DHT22;3755;59.316;18.092;2023-05-16T05:09:11;12.00;99.90
7427;DHT22;3755;59.316;18.092;2023-05-16T05:11:38;11.90;99.90
7427;DHT22;3755;59.316;18.092;2023-05-16T05:14:06;11.90;99.90
7427;DHT22;3755;59.316;18.092;2023-05-16T05:16:33;11.80;99.90
7427;DHT22;3755;59.316;18.092;2023-05-16T05:19:00;11.80;99.90
7427;DHT22;3755;59.316;18.092;2023-05-16T05:21:28;11.70;99.90
7427;DHT22;3755;59.316;18.092;2023-05-16T05:23:56;11.70;99.90
7427;DHT22;3755;59.316;18.092;2023-05-16T05:26:23;11.70;99.90
7427;DHT22;3755;59.316;18.092;2023-05-16T05:28:51;11.70;99.90
7427;DHT22;3755;59.316;18.092;2023-05-16T05:31:18;11.70;99.90
7427;DHT22;3755;59.316;18.092;2023-05-16T05:33:46;11.70;99.90
7427;DHT22;3755;59.316;18.092;2023-05-16T05:36:13;11.70;99.90
7427;DHT22;3755;59.316;18.092;2023-05-16T05:38:40;11.70;99.90
7427;DHT22;3755;59.316;18.092;2023-05-16T05:41:09;11.70;99.90
7427;DHT22;3755;59.316;18.092;2023-05-16T05:43:37;11.80;99.90
7427;DHT22;3755;59.316;18.092;2023-05-16T05:46:05;11.80;99.90
7427;DHT22;3755;59.316;18.092;2023-05-16T05:48:32;11.90;99.90
7427;DHT22;3755;59.316;18.092;2023-05-16T05:50:59;11.90;99.90
7427;DHT22;3755;59.316;18.092;2023-05-16T05:53:27;12.00;99.90
7427;DHT22;3755;59.316;18.092;2023-05-16T05:55:55;12.00;99.90
7427;DHT22;3755;59.316;18.092;2023-05-16T05:58:26;12.00;99.90
7427;DHT22;3755;59.316;18.092;2023-05-16T06:00:53;12.10;99.90
7427;DHT22;3755;59.316;18.092;2023-05-16T06:03:20;12.10;99.90
7427;DHT22;3755;59.316;18.092;2023-05-16T06:05:48;12.10;99.90
7427;DHT22;3755;59.316;18.092;2023-05-16T06:08:15;12.10;99.90
7427;DHT22;3755;59.316;18.092;2023-05-16T06:10:42;12.20;99.90
7427;DHT22;3755;59.316;18.092;2023-05-16T06:13:10;12.20;99.90
7427;DHT22;3755;59.316;18.092;2023-05-16T06:15:39;12.10;99.90
7427;DHT22;3755;59.316;18.092;2023-05-16T06:18:06;12.10;99.90
7427;DHT22;3755;59.316;18.092;2023-05-16T06:20:34;12.10;99.90
7427;DHT22;3755;59.316;18.092;2023-05-16T06:23:01;12.00;99.90
7427;DHT22;3755;59.316;18.092;2023-05-16T06:25:28;12.10;99.90
7427;DHT22;3755;59.316;18.092;2023-05-16T06:27:55;12.20;99.90
7427;DHT22;3755;59.316;18.092;2023-05-16T06:30:23;12.30;99.90
7427;DHT22;3755;59.316;18.092;2023-05-16T06:32:52;12.40;99.90
7427;DHT22;3755;59.316;18.092;2023-05-16T06:35:19;12.40;99.90
7427;DHT22;3755;59.316;18.092;2023-05-16T06:37:46;12.40;99.90
7427;DHT22;3755;59.316;18.092;2023-05-16T06:40:14;12.40;99.90
7427;DHT22;3755;59.316;18.092;2023-05-16T06:42:41;12.30;99.90
7427;DHT22;3755;59.316;18.092;2023-05-16T06:45:09;12.30;99.90
7427;DHT22;3755;59.316;18.092;2023-05-16T06:47:36;12.30;99.90
7427;DHT22;3755;59.316;18.092;2023-05-16T06:50:07;12.30;99.90
7427;DHT22;3755;59.316;18.092;2023-05-16T06:52:34;12.30;99.90
7427;DHT22;3755;59.316;18.092;2023-05-16T06:55:02;12.30;99.90
7427;DHT22;3755;59.316;18.092;2023-05-16T06:57:29;12.30;99.90
7427;DHT22;3755;59.316;18.092;2023-05-16T06:59:57;12.20;99.90
7427;DHT22;3755;59.316;18.092;2023-05-16T07:02:24;12.10;99.90
7427;DHT22;3755;59.316;18.092;2023-05-16T07:04:51;12.10;99.90
7427;DHT22;3755;59.316;18.092;2023-05-16T07:07:20;12.00;99.90
7427;DHT22;3755;59.316;18.092;2023-05-16T07:09:47;11.90;99.90
7427;DHT22;3755;59.316;18.092;2023-05-16T07:12:14;11.90;99.90
7427;DHT22;3755;59.316;18.092;2023-05-16T07:14:42;11.90;99.90
7427;DHT22;3755;59.316;18.092;2023-05-16T07:17:09;11.90;99.90
7427;DHT22;3755;59.316;18.092;2023-05-16T07:19:37;11.90;99.90
7427;DHT22;3755;59.316;18.092;2023-05-16T07:22:04;12.00;99.90
7427;DHT22;3755;59.316;18.092;2023-05-16T07:24:33;11.90;99.90
7427;DHT22;3755;59.316;18.092;2023-05-16T07:27:01;12.00;99.90
7427;DHT22;3755;59.316;18.092;2023-05-16T07:29:28;12.10;99.90
7427;DHT22;3755;59.316;18.092;2023-05-16T07:31:56;12.10;99.90
7427;DHT22;3755;59.316;18.092;2023-05-16T07:34:24;12.30;99.90
7427;DHT22;3755;59.316;18.092;2023-05-16T07:36:51;12.40;99.90
7427;DHT22;3755;59.316;18.092;2023-05-16T07:39:18;12.40;99.90
7427;DHT22;3755;59.316;18.092;2023-05-16T07:41:47;12.40;99.90
7427;DHT22;3755;59.316;18.092;2023-05-16T07:44:14;12.40;99.90
7427;DHT22;3755;59.316;18.092;2023-05-16T07:46:42;12.40;99.90
7427;DHT22;3755;59.316;18.092;2023-05-16T07:49:09;12.40;99.90
7427;DHT22;3755;59.316;18.092;2023-05-16T07:51:36;12.50;99.90
7427;DHT22;3755;59.316;18.092;2023-05-16T07:54:04;12.50;99.90
7427;DHT22;3755;59.316;18.092;2023-05-16T07:56:31;12.60;99.90
7427;DHT22;3755;59.316;18.092;2023-05-16T07:59:00;12.60;99.90
7427;DHT22;3755;59.316;18.092;2023-05-16T08:01:27;12.60;99.90
7427;DHT22;3755;59.316;18.092;2023-05-16T08:03:55;12.80;99.90
7427;DHT22;3755;59.316;18.092;2023-05-16T08:06:22;12.80;99.90
7427;DHT22;3755;59.316;18.092;2023-05-16T08:08:49;13.00;99.90
7427;DHT22;3755;59.316;18.092;2023-05-16T08:11:18;13.30;99.90
7427;DHT22;3755;59.316;18.092;2023-05-16T08:13:47;13.30;99.90
7427;DHT22;3755;59.316;18.092;2023-05-16T08:16:15;13.20;99.90
7427;DHT22;3755;59.316;18.092;2023-05-16T08:18:43;13.20;99.90
7427;DHT22;3755;59.316;18.092;2023-05-16T08:21:10;13.30;99.90
7427;DHT22;3755;59.316;18.092;2023-05-16T08:23:39;13.10;99.90
7427;DHT22;3755;59.316;18.092;2023-05-16T08:26:06;12.90;99.90
7427;DHT22;3755;59.316;18.092;2023-05-16T08:28:33;12.90;99.90
7427;DHT22;3755;59.316;18.092;2023-05-16T08:31:00;12.90;99.90
7427;DHT22;3755;59.316;18.092;2023-05-16T08:33:29;13.00;99.90
7427;DHT22;3755;59.316;18.092;2023-05-16T08:35:57;13.00;99.90
7427;DHT22;3755;59.316;18.092;2023-05-16T08:38:25;13.10;99.90
7427;DHT22;3755;59.316;18.092;2023-05-16T08:40:52;13.10;99.90
7427;DHT22;3755;59.316;18.092;2023-05-16T08:43:20;13.20;99.90
7427;DHT22;3755;59.316;18.092;2023-05-16T08:45:47;13.00;99.90
7427;DHT22;3755;59.316;18.092;2023-05-16T08:48:16;12.90;99.90
7427;DHT22;3755;59.316;18.092;2023-05-16T08:50:47;12.80;99.90
7427;DHT22;3755;59.316;18.092;2023-05-16T08:53:19;12.70;99.90
7427;DHT22;3755;59.316;18.092;2023-05-16T08:55:48;12.70;99.90
7427;DHT22;3755;59.316;18.092;2023-05-16T08:58:17;12.80;99.90
7427;DHT22;3755;59.316;18.092;2023-05-16T09:00:47;12.90;99.90
7427;DHT22;3755;59.316;18.092;2023-05-16T09:03:15;12.90;99.90
7427;DHT22;3755;59.316;18.092;2023-05-16T09:05:47;12.80;99.90
7427;DHT22;3755;59.316;18.092;2023-05-16T09:08:15;12.80;99.90
7427;DHT22;3755;59.316;18.092;2023-05-16T09:10:42;12.80;99.90
7427;DHT22;3755;59.316;18.092;2023-05-16T09:13:09;12.90;99.90
7427;DHT22;3755;59.316;18.092;2023-05-16T09:15:37;12.90;99.90
7427;DHT22;3755;59.316;18.092;2023-05-16T09:18:04;13.00;99.90
7427;DHT22;3755;59.316;18.092;2023-05-16T09:20:42;13.00;99.90
7427;DHT22;3755;59.316;18.092;2023-05-16T09:23:12;12.90;99.90
7427;DHT22;3755;59.316;18.092;2023-05-16T09:25:40;13.00;99.90
7427;DHT22;3755;59.316;18.092;2023-05-16T09:28:10;13.00;99.90
7427;DHT22;3755;59.316;18.092;2023-05-16T09:30:38;12.90;99.90
7427;DHT22;3755;59.316;18.092;2023-05-16T09:33:06;12.90;99.90
7427;DHT22;3755;59.316;18.092;2023-05-16T09:35:34;12.70;99.90
7427;DHT22;3755;59.316;18.092;2023-05-16T09:38:01;12.70;99.90
7427;DHT22;3755;59.316;18.092;2023-05-16T09:40:30;12.70;99.90
7427;DHT22;3755;59.316;18.092;2023-05-16T09:43:04;12.70;99.90
7427;DHT22;3755;59.316;18.092;2023-05-16T09:45:33;12.60;99.90
7427;DHT22;3755;59.316;18.092;2023-05-16T09:48:03;12.60;99.90
7427;DHT22;3755;59.316;18.092;2023-05-16T09:50:32;12.50;99.90
7427;DHT22;3755;59.316;18.092;2023-05-16T09:53:00;12.50;99.90
7427;DHT22;3755;59.316;18.092;2023-05-16T09:55:29;12.50;99.90
7427;DHT22;3755;59.316;18.092;2023-05-16T09:57:56;12.50;99.90
7427;DHT22;3755;59.316;18.092;2023-05-16T10:00:28;12.50;99.90
7427;DHT22;3755;59.316;18.092;2023-05-16T10:02:56;12.50;99.90
7427;DHT22;3755;59.316;18.092;2023-05-16T10:05:25;12.60;99.90
7427;DHT22;3755;59.316;18.092;2023-05-16T10:07:55;12.70;99.90
7427;DHT22;3755;59.316;18.092;2023-05-16T10:10:23;12.60;99.90
7427;DHT22;3755;59.316;18.092;2023-05-16T10:12:52;12.60;99.90
7427;DHT22;3755;59.316;18.092;2023-05-16T10:15:21;12.70;99.90
7427;DHT22;3755;59.316;18.092;2023-05-16T10:17:50;12.60;99.90
7427;DHT22;3755;59.316;18.092;2023-05-16T10:20:19;12.80;99.90
7427;DHT22;3755;59.316;18.092;2023-05-16T10:22:46;12.70;99.90
7427;DHT22;3755;59.316;18.092;2023-05-16T10:25:25;12.70;99.90
7427;DHT22;3755;59.316;18.092;2023-05-16T10:27:56;12.70;99.90
7427;DHT22;3755;59.316;18.092;2023-05-16T10:30:24;12.80;99.90
7427;DHT22;3755;59.316;18.092;2023-05-16T10:32:52;12.80;99.90
7427;DHT22;3755;59.316;18.092;2023-05-16T10:35:20;12.80;99.90
7427;DHT22;3755;59.316;18.092;2023-05-16T10:37:47;12.90;99.90
7427;DHT22;3755;59.316;18.092;2023-05-16T10:40:16;13.40;99.90
7427;DHT22;3755;59.316;18.092;2023-05-16T10:42:53;12.90;99.90
7427;DHT22;3755;59.316;18.092;2023-05-16T10:45:22;12.80;99.90
7427;DHT22;3755;59.316;18.092;2023-05-16T10:47:54;12.80;99.90
7427;DHT22;3755;59.316;18.092;2023-05-16T10:50:32;12.80;99.90
7427;DHT22;3755;59.316;18.092;2023-05-16T10:53:14;12.90;99.90
7427;DHT22;3755;59.316;18.092;2023-05-16T10:55:50;13.00;99.90
7427;DHT22;3755;59.316;18.092;2023-05-16T10:58:43;13.00;99.90
7427;DHT22;3755;59.316;18.092;2023-05-16T11:01:33;13.10;99.90
7427;DHT22;3755;59.316;18.092;2023-05-16T11:04:08;13.20;99.90
7427;DHT22;3755;59.316;18.092;2023-05-16T11:06:45;13.30;99.90
7427;DHT22;3755;59.316;18.092;2023-05-16T11:09:23;13.20;99.90
7427;DHT22;3755;59.316;18.092;2023-05-16T11:11:59;13.30;99.90
7427;DHT22;3755;59.316;18.092;2023-05-16T11:14:32;13.30;99.90
7427;DHT22;3755;59.316;18.092;2023-05-16T11:17:10;13.30;99.90
7427;DHT22;3755;59.316;18.092;2023-05-16T11:19:40;13.40;99.90
7427;DHT22;3755;59.316;18.092;2023-05-16T11:22:12;13.40;99.90
7427;DHT22;3755;59.316;18.092;2023-05-16T11:24:50;13.40;99.90
7427;DHT22;3755;59.316;18.092;2023-05-16T11:27:31;13.50;99.90
7427;DHT22;3755;59.316;18.092;2023-05-16T11:30:01;13.50;99.90
7427;DHT22;3755;59.316;18.092;2023-05-16T11:32:40;13.40;99.90
7427;DHT22;3755;59.316;18.092;2023-05-16T11:35:10;13.30;99.90
7427;DHT22;3755;59.316;18.092;2023-05-16T11:37:38;13.30;99.90
7427;DHT22;3755;59.316;18.092;2023-05-16T11:40:06;13.40;99.90
7427;DHT22;3755;59.316;18.092;2023-05-16T11:42:37;13.50;99.90
7427;DHT22;3755;59.316;18.092;2023-05-16T11:45:06;13.50;99.90
7427;DHT22;3755;59.316;18.092;2023-05-16T11:47:35;13.60;99.90
7427;DHT22;3755;59.316;18.092;2023-05-16T11:50:05;13.60;99.90
7427;DHT22;3755;59.316;18.092;2023-05-16T11:52:34;13.60;99.90
7427;DHT22;3755;59.316;18.092;2023-05-16T11:55:03;13.60;99.90
7427;DHT22;3755;59.316;18.092;2023-05-16T11:57:31;13.60;99.90
7427;DHT22;3755;59.316;18.092;2023-05-16T12:00:02;13.60;99.90
7427;DHT22;3755;59.316;18.092;2023-05-16T12:02:31;13.70;99.90
7427;DHT22;3755;59.316;18.092;2023-05-16T12:04:58;13.60;99.90
7427;DHT22;3755;59.316;18.092;2023-05-16T12:07:30;13.60;99.90
7427;DHT22;3755;59.316;18.092;2023-05-16T12:09:57;13.70;99.90
7427;DHT22;3755;59.316;18.092;2023-05-16T12:12:24;13.70;99.90
7427;DHT22;3755;59.316;18.092;2023-05-16T12:14:52;13.80;99.90
7427;DHT22;3755;59.316;18.092;2023-05-16T12:17:20;14.00;99.90
7427;DHT22;3755;59.316;18.092;2023-05-16T12:19:48;14.10;99.90
7427;DHT22;3755;59.316;18.092;2023-05-16T12:22:15;14.30;99.90
7427;DHT22;3755;59.316;18.092;2023-05-16T12:24:45;14.40;99.90
7427;DHT22;3755;59.316;18.092;2023-05-16T12:27:12;14.50;99.90
7427;DHT22;3755;59.316;18.092;2023-05-16T12:29:39;14.50;99.90
7427;DHT22;3755;59.316;18.092;2023-05-16T12:32:07;14.50;99.90
7427;DHT22;3755;59.316;18.092;2023-05-16T12:34:34;14.50;99.90
7427;DHT22;3755;59.316;18.092;2023-05-16T12:37:02;14.60;99.90
7427;DHT22;3755;59.316;18.092;2023-05-16T12:39:36;14.50;99.90
7427;DHT22;3755;59.316;18.092;2023-05-16T12:42:06;14.60;99.90
7427;DHT22;3755;59.316;18.092;2023-05-16T12:44:34;14.60;99.90
7427;DHT22;3755;59.316;18.092;2023-05-16T12:47:02;14.40;99.90
7427;DHT22;3755;59.316;18.092;2023-05-16T12:49:29;14.40;99.90
7427;DHT22;3755;59.316;18.092;2023-05-16T12:51:59;14.50;99.90
7427;DHT22;3755;59.316;18.092;2023-05-16T12:54:30;14.50;99.90
7427;DHT22;3755;59.316;18.092;2023-05-16T12:56:57;14.30;99.90
7427;DHT22;3755;59.316;18.092;2023-05-16T12:59:26;14.40;99.90
7427;DHT22;3755;59.316;18.092;2023-05-16T13:01:56;14.30;99.90
7427;DHT22;3755;59.316;18.092;2023-05-16T13:04:23;14.20;99.90
7427;DHT22;3755;59.316;18.092;2023-05-16T13:06:50;14.20;99.90
7427;DHT22;3755;59.316;18.092;2023-05-16T13:09:18;14.30;99.90
7427;DHT22;3755;59.316;18.092;2023-05-16T13:11:45;14.20;99.90
7427;DHT22;3755;59.316;18.092;2023-05-16T13:14:12;14.10;99.90
7427;DHT22;3755;59.316;18.092;2023-05-16T13:16:42;14.10;99.90
7427;DHT22;3755;59.316;18.092;2023-05-16T13:19:09;14.10;99.90
7427;DHT22;3755;59.316;18.092;2023-05-16T13:21:36;14.20;99.90
7427;DHT22;3755;59.316;18.092;2023-05-16T13:24:04;14.30;99.90
7427;DHT22;3755;59.316;18.092;2023-05-16T13:26:32;14.30;99.90
7427;DHT22;3755;59.316;18.092;2023-05-16T13:28:59;14.30;99.90
7427;DHT22;3755;59.316;18.092;2023-05-16T13:31:27;14.30;99.90
7427;DHT22;3755;59.316;18.092;2023-05-16T13:33:55;14.30;99.90
7427;DHT22;3755;59.316;18.092;2023-05-16T13:36:23;14.30;99.90
7427;DHT22;3755;59.316;18.092;2023-05-16T13:38:51;14.20;99.90
7427;DHT22;3755;59.316;18.092;2023-05-16T13:41:18;14.20;99.90
7427;DHT22;3755;59.316;18.092;2023-05-16T13:43:46;14.20;99.90
7427;DHT22;3755;59.316;18.092;2023-05-16T13:46:14;14.10;99.90
7427;DHT22;3755;59.316;18.092;2023-05-16T13:48:41;14.00;99.90
7427;DHT22;3755;59.316;18.092;2023-05-16T13:51:10;14.10;99.90
7427;DHT22;3755;59.316;18.092;2023-05-16T13:53:38;14.20;99.90
7427;DHT22;3755;59.316;18.092;2023-05-16T13:56:05;14.20;99.90
7427;DHT22;3755;59.316;18.092;2023-05-16T13:58:33;14.30;99.90
7427;DHT22;3755;59.316;18.092;2023-05-16T14:01:00;14.40;99.90
7427;DHT22;3755;59.316;18.092;2023-05-16T14:03:27;14.40;99.90
7427;DHT22;3755;59.316;18.092;2023-05-16T14:05:54;14.40;99.90
7427;DHT22;3755;59.316;18.092;2023-05-16T14:08:23;14.60;99.90
7427;DHT22;3755;59.316;18.092;2023-05-16T14:10:50;14.80;99.90
7427;DHT22;3755;59.316;18.092;2023-05-16T14:13:18;14.90;99.90
7427;DHT22;3755;59.316;18.092;2023-05-16T14:15:47;14.90;99.90
7427;DHT22;3755;59.316;18.092;2023-05-16T14:18:14;14.80;99.90
7427;DHT22;3755;59.316;18.092;2023-05-16T14:20:41;14.60;99.90
7427;DHT22;3755;59.316;18.092;2023-05-16T14:23:09;14.60;99.90
7427;DHT22;3755;59.316;18.092;2023-05-16T14:25:37;14.50;99.90
7427;DHT22;3755;59.316;18.092;2023-05-16T14:28:05;14.60;99.90
7427;DHT22;3755;59.316;18.092;2023-05-16T14:30:32;14.60;99.90
7427;DHT22;3755;59.316;18.092;2023-05-16T14:32:59;14.70;99.90
7427;DHT22;3755;59.316;18.092;2023-05-16T14:35:28;14.80;99.90
7427;DHT22;3755;59.316;18.092;2023-05-16T14:37:55;14.90;99.90
7427;DHT22;3755;59.316;18.092;2023-05-16T14:40:23;14.80;99.90
7427;DHT22;3755;59.316;18.092;2023-05-16T14:42:51;14.70;99.90
7427;DHT22;3755;59.316;18.092;2023-05-16T14:45:20;14.60;99.90
7427;DHT22;3755;59.316;18.092;2023-05-16T14:47:47;14.70;99.90
7427;DHT22;3755;59.316;18.092;2023-05-16T14:50:15;14.60;99.90
7427;DHT22;3755;59.316;18.092;2023-05-16T14:52:43;14.70;99.90
7427;DHT22;3755;59.316;18.092;2023-05-16T14:55:10;14.80;99.90
7427;DHT22;3755;59.316;18.092;2023-05-16T14:57:37;15.00;99.90
7427;DHT22;3755;59.316;18.092;2023-05-16T15:00:07;15.00;99.90
7427;DHT22;3755;59.316;18.092;2023-05-16T15:02:35;15.20;99.90
7427;DHT22;3755;59.316;18.092;2023-05-16T15:05:05;15.20;99.90
7427;DHT22;3755;59.316;18.092;2023-05-16T15:07:32;15.40;99.90
7427;DHT22;3755;59.316;18.092;2023-05-16T15:10:00;15.40;99.90
7427;DHT22;3755;59.316;18.092;2023-05-16T15:12:27;15.60;99.90
7427;DHT22;3755;59.316;18.092;2023-05-16T15:14:54;15.60;99.90
7427;DHT22;3755;59.316;18.092;2023-05-16T15:17:23;15.50;99.90
7427;DHT22;3755;59.316;18.092;2023-05-16T15:19:50;15.30;99.90
7427;DHT22;3755;59.316;18.092;2023-05-16T15:22:19;15.30;99.90
7427;DHT22;3755;59.316;18.092;2023-05-16T15:24:46;15.10;99.90
7427;DHT22;3755;59.316;18.092;2023-05-16T15:27:13;14.90;99.90
7427;DHT22;3755;59.316;18.092;2023-05-16T15:29:40;14.80;99.90
7427;DHT22;3755;59.316;18.092;2023-05-16T15:32:07;14.80;99.90
7427;DHT22;3755;59.316;18.092;2023-05-16T15:34:39;14.70;99.90
7427;DHT22;3755;59.316;18.092;2023-05-16T15:37:06;14.60;99.90
7427;DHT22;3755;59.316;18.092;2023-05-16T15:39:34;14.60;99.90
7427;DHT22;3755;59.316;18.092;2023-05-16T15:42:01;14.60;99.90
7427;DHT22;3755;59.316;18.092;2023-05-16T15:44:31;14.60;99.90
7427;DHT22;3755;59.316;18.092;2023-05-16T15:46:58;14.50;99.90
7427;DHT22;3755;59.316;18.092;2023-05-16T15:49:26;14.50;99.90
7427;DHT22;3755;59.316;18.092;2023-05-16T15:51:55;14.50;99.90
7427;DHT22;3755;59.316;18.092;2023-05-16T15:54:22;14.40;99.90